• Join FlightAware (Why Join?)
  • Login
  • US Flag 
10:59PM EDT


 

Airport Tracker/Info


-or-


 

Live Flight TrackerFlight Track Log ✈ AWE1411 ✈ 31-Jul-2013 ✈ KCLT - KPBI

Flight Track Log - Related Links

Times and Time Zones

All times are in EDT time to prevent confusion due to time zone crossing. See the AWE1411 flight status page for this flight to view local times or setup timezone preferences in your user account.

Time Position Orientation Groundspeed Altitude Reporting Facility
EDT Latitude Longitude Course Direction KTS MPH feet Rate Location/Type
11:31AM 35.1908 -80.9356 193° South 181 208 1,700  Level Atlanta Center
11:32AM 35.1111 -80.9233 173° South 254 292 4,400 2,400 Climbing Atlanta Center
11:33AM 35.0547 -80.9153 173° South 275 316 6,600 2,160 Climbing Atlanta Center
11:34AM 34.7398 -80.8973 180° South  Level Estimated
11:34AM 34.9856 -80.9028 172° South 275 316 8,100  Level Atlanta Center
11:35AM 34.6213 -80.8845 180° South  Level Estimated
11:35AM 34.9061 -80.9008 179° South 303 349 10,300  Level Atlanta Center
11:36AM 34.5028 -80.8716 193° South  Level Estimated
11:36AM 34.8144 -80.9017 180° South 321 369 12,800  Level Atlanta Center
11:38AM 34.5842 -80.8903 178° South 387 445 16,800 1,740 Climbing Jacksonville Center
11:39AM 34.4778 -80.8953 182° South 410 472 18,500 1,920 Climbing Jacksonville Center
11:40AM 34.3656 -80.9256 193° South 417 480 20,700 2,040 Climbing Jacksonville Center
11:41AM 34.2450 -80.9558 192° South 421 484 22,600 1,680 Climbing Jacksonville Center
11:42AM 34.1247 -80.9886 193° South 427 491 24,100 1,440 Climbing Jacksonville Center
11:43AM 34.0122 -81.0161 191° South 449 517 25,500 1,320 Climbing Jacksonville Center
11:44AM 33.8792 -81.0489 192° South 449 517 26,800 1,620 Climbing Jacksonville Center
11:45AM 33.7750 -81.0561 183° South 449 517 28,800 2,040 Climbing Jacksonville Center
11:46AM 33.6458 -81.0639 183° South 442 509 30,900 1,380 Climbing Jacksonville Center
11:47AM 33.5289 -81.0686 182° South 430 495 31,600 720 Climbing Jacksonville Center
11:48AM 33.4058 -81.0711 181° South 430 495 32,400 840 Climbing Jacksonville Center
11:49AM 33.2850 -81.0736 181° South 436 502 33,300 720 Climbing Jacksonville Center
11:50AM 33.1639 -81.0811 183° South 436 502 33,900 300 Climbing Jacksonville Center
11:51AM 33.0344 -81.0836 181° South 447 514 34,000  Climbing Jacksonville Center
11:52AM 32.9094 -81.0911 183° South 453 521 33,900  Descending Jacksonville Center
11:53AM 32.7864 -81.0936 181° South 453 521 34,000  Climbing Jacksonville Center
11:55AM 32.5400 -81.0986 181° South 448 516 34,000  Level Jacksonville Center
11:56AM 32.4169 -81.1011 181° South 448 516 34,000  Level Jacksonville Center
11:57AM 32.2897 -81.1033 181° South 453 521 34,000  Level Jacksonville Center
11:58AM 32.1664 -81.1083 182° South 453 521 34,000  Level Jacksonville Center
11:59AM 32.0392 -81.1108 181° South 453 521 34,000  Level Jacksonville Center
12:00PM 31.9161 -81.1156 182° South 453 521 34,000  Level Jacksonville Center
12:01PM 31.7803 -81.1183 181° South 448 516 34,000  Level Jacksonville Center
12:02PM 31.6572 -81.1231 182° South 448 516 34,000  Level Jacksonville Center
12:03PM 31.5319 -81.1278 182° South 448 516 34,000  Level Jacksonville Center
12:04PM 31.4194 -81.1300 181° South 455 524 34,000  Level Jacksonville Center
12:05PM 31.2794 -81.1350 182° South 455 524 34,000  Level Jacksonville Center
12:06PM 31.1544 -81.1400 182° South 455 524 34,000  Level Jacksonville Center
12:07PM 31.0269 -81.1447 182° South 460 529 34,000  Level Jacksonville Center
12:08PM 30.9039 -81.1469 181° South 455 524 34,000  Level Jacksonville Center
12:09PM 30.7786 -81.1492 181° South 455 524 34,000  Level Jacksonville Center
12:10PM 30.6514 -81.1539 182° South 460 529 34,000  Level Jacksonville Center
12:11PM 30.5281 -81.1369 173° South 455 524 34,000  Level Jacksonville Center
12:12PM 30.4044 -81.1056 168° South 455 524 34,000  Level Jacksonville Center
12:13PM 30.2806 -81.0742 168° South 455 524 34,000  Level Jacksonville Center
12:14PM 30.1550 -81.0428 168° South 455 524 34,000  Level Jacksonville Center
12:15PM 30.0333 -81.0117 168° South 450 518 34,000  Level Jacksonville Center
12:16PM 29.9119 -80.9828 168° South 450 518 34,000  Level Jacksonville Center
12:17PM 29.7903 -80.9517 167° South 450 518 34,000  Level Jacksonville Center
12:18PM 29.6647 -80.9208 168° South 450 518 34,000  Level Jacksonville Center
12:19PM 29.5431 -80.8922 168° South 450 518 34,000  Level Jacksonville Center
12:21PM 29.2972 -80.8275 167° South 452 520 34,000  Level Miami Center
12:22PM 29.1861 -80.7736 157° South 446 513 34,000  Level Miami Center
12:23PM 29.0686 -80.7219 159° South 441 507 34,000  Level Miami Center
12:24PM 28.9408 -80.6606 157° South 447 514 34,000  Level Miami Center
12:25PM 28.8111 -80.5992 157° South 447 514 34,000  Level Miami Center
12:26PM 28.6997 -80.5458 157° South 446 513 34,000  Level Miami Center
12:27PM 28.5803 -80.4944 159° South 451 519 34,000  Level Miami Center
12:28PM 28.4703 -80.4650 167° South 451 519 34,000 -300 Level Miami Center
12:29PM 28.3481 -80.4303 166° South 451 519 33,500 -2,160 Descending Miami Center
12:30PM 28.2114 -80.3883 165° South 451 519 29,700 -3,720 Descending Miami Center
12:31PM 28.0850 -80.3514 166° South 468 539 26,100 -3,300 Descending Miami Center
12:32PM 27.9564 -80.3169 167° South 468 539 23,100 -2,820 Descending Miami Center
12:33PM 27.8486 -80.2856 166° South 468 539 20,500 -2,640 Descending Miami Center
12:34PM 27.7325 -80.2539 166° South 445 512 17,900 -2,760 Descending Miami Center
12:35PM 27.6100 -80.2175 165° South 424 488 15,000 -2,700 Descending Miami Center
12:36PM 27.5022 -80.1886 167° South 405 466 12,500 -2,340 Descending Miami Center
12:37PM 27.4006 -80.1600 166° South 390 449 10,400 -1,260 Descending Miami Center
12:38PM 27.3175 -80.1436 170° South 360 414 10,000 -480 Descending Miami Center
12:39PM 27.2364 -80.1294 171° South 316 364 9,500 -1,140 Descending Miami Center
12:40PM 27.1508 -80.1178 173° South 290 334 7,800 -1,620 Descending Miami Center
12:41PM 27.0739 -80.1086 174° South 285 328 6,300 -1,500 Descending Miami Center
12:42PM 27.0011 -80.0972 172° South 280 322 4,800 -1,200 Descending Miami Center
12:43PM 26.9367 -80.0861 171° South 273 314 4,000 -420 Descending Miami Center
12:44PM 26.8742 -80.0797 175° South 247 284 4,000 -780 Level Miami Center
12:45PM 26.8189 -80.1203 213° Southwest 208 239 2,500 -1,500 Descending Miami Center